createdAt,value
2023-05-13T00:01:16.571Z,5.10
2023-05-13T00:03:44.010Z,6.50
2023-05-13T00:06:10.685Z,8.40
2023-05-13T00:08:37.082Z,8.85
2023-05-13T00:11:03.514Z,9.95
2023-05-13T00:13:29.883Z,10.35
2023-05-13T00:15:56.245Z,5.77
2023-05-13T00:18:22.689Z,6.03
2023-05-13T00:20:49.087Z,7.07
2023-05-13T00:23:15.488Z,5.55
2023-05-13T00:25:44.061Z,7.63
2023-05-13T00:28:11.306Z,7.87
2023-05-13T00:30:37.692Z,6.63
2023-05-13T00:33:04.205Z,5.78
2023-05-13T00:35:30.588Z,7.32
2023-05-13T00:37:56.962Z,7.20
2023-05-13T00:40:24.581Z,8.80
2023-05-13T00:42:51.859Z,7.47
2023-05-13T00:45:18.266Z,6.47
2023-05-13T00:47:45.190Z,7.75
2023-05-13T00:50:13.519Z,7.65
2023-05-13T00:52:41.381Z,5.90
2023-05-13T00:55:09.476Z,10.05
2023-05-13T00:57:37.013Z,6.03
2023-05-13T01:00:05.810Z,6.30
2023-05-13T01:02:44.439Z,5.78
2023-05-13T01:05:45.360Z,6.30
2023-05-13T01:08:30.520Z,7.43
2023-05-13T01:11:21.808Z,7.70
2023-05-13T01:13:53.089Z,5.40
2023-05-13T01:16:31.625Z,8.73
2023-05-13T01:19:05.404Z,6.80
2023-05-13T01:21:36.575Z,7.30
2023-05-13T01:24:03.034Z,8.80
2023-05-13T01:26:29.481Z,8.60
2023-05-13T01:28:55.939Z,6.82
2023-05-13T01:31:23.439Z,6.20
2023-05-13T01:33:50.564Z,7.25
2023-05-13T01:36:17.893Z,8.98
2023-05-13T01:38:45.312Z,7.53
2023-05-13T01:41:11.676Z,6.97
2023-05-13T01:43:38.041Z,8.07
2023-05-13T01:46:11.952Z,8.45
2023-05-13T01:48:38.419Z,7.07
2023-05-13T01:51:05.888Z,7.35
2023-05-13T01:53:32.354Z,9.73
2023-05-13T01:55:58.797Z,9.00
2023-05-13T01:58:25.258Z,7.38
2023-05-13T02:00:51.719Z,8.63
2023-05-13T02:03:18.962Z,10.00
2023-05-13T02:05:47.489Z,6.95
2023-05-13T02:08:13.930Z,8.53
2023-05-13T02:10:40.284Z,9.73
2023-05-13T02:13:06.650Z,8.95
2023-05-13T02:15:33.014Z,8.20
2023-05-13T02:17:59.419Z,8.05
2023-05-13T02:20:26.457Z,8.97
2023-05-13T02:22:52.813Z,6.90
2023-05-13T02:25:19.281Z,9.02
2023-05-13T02:27:46.025Z,9.45
2023-05-13T02:30:12.921Z,10.80
2023-05-13T02:32:42.713Z,7.60
2023-05-13T02:35:10.678Z,8.13
2023-05-13T02:37:37.066Z,8.93
2023-05-13T02:40:03.755Z,8.35
2023-05-13T02:42:30.161Z,9.10
2023-05-13T02:44:57.363Z,8.00
2023-05-13T02:47:23.785Z,7.72
2023-05-13T02:49:50.170Z,9.85
2023-05-13T02:52:16.563Z,8.35
2023-05-13T02:54:42.951Z,11.10
2023-05-13T02:57:09.374Z,9.33
2023-05-13T02:59:35.740Z,11.00
2023-05-13T03:02:02.194Z,9.55
2023-05-13T03:04:28.852Z,9.07
2023-05-13T03:06:55.449Z,13.40
2023-05-13T03:09:21.816Z,9.20
2023-05-13T03:11:48.426Z,11.98
2023-05-13T03:14:14.890Z,9.80
2023-05-13T03:16:41.325Z,9.15
2023-05-13T03:19:07.782Z,9.32
2023-05-13T03:21:34.195Z,8.43
2023-05-13T03:24:00.645Z,9.73
2023-05-13T03:26:27.013Z,9.73
2023-05-13T03:28:53.415Z,9.57
2023-05-13T03:31:19.840Z,9.60
2023-05-13T03:33:46.348Z,12.60
2023-05-13T03:36:12.749Z,10.18
2023-05-13T03:38:39.104Z,9.77
2023-05-13T03:41:05.565Z,9.90
2023-05-13T03:43:32.486Z,11.30
2023-05-13T03:45:58.916Z,9.13
2023-05-13T03:48:25.294Z,8.18
2023-05-13T03:50:53.073Z,10.10
2023-05-13T03:53:19.480Z,9.05
2023-05-13T03:55:46.126Z,9.27
2023-05-13T03:58:14.415Z,10.23
2023-05-13T04:00:42.198Z,10.18
2023-05-13T04:03:09.369Z,11.68
2023-05-13T04:05:35.838Z,11.20
2023-05-13T04:08:02.245Z,9.25
2023-05-13T04:10:28.620Z,16.37
2023-05-13T04:12:55.010Z,11.23
2023-05-13T04:15:21.356Z,11.80
2023-05-13T04:17:48.538Z,9.70
2023-05-13T04:20:15.076Z,9.77
2023-05-13T04:22:41.424Z,13.40
2023-05-13T04:25:08.433Z,10.77
2023-05-13T04:27:34.874Z,10.63
2023-05-13T04:30:01.560Z,12.68
2023-05-13T04:32:28.029Z,9.52
2023-05-13T04:34:54.956Z,11.07
2023-05-13T04:37:21.313Z,12.68
2023-05-13T04:39:48.255Z,11.73
2023-05-13T04:42:15.342Z,11.68
2023-05-13T04:44:41.727Z,12.18
2023-05-13T04:47:08.122Z,10.77
2023-05-13T04:49:34.601Z,11.18
2023-05-13T04:52:02.577Z,12.90
2023-05-13T04:54:28.953Z,10.07
2023-05-13T04:56:55.386Z,13.18
2023-05-13T04:59:22.703Z,12.07
2023-05-13T05:01:49.323Z,11.82
2023-05-13T05:04:16.038Z,11.23
2023-05-13T05:06:42.440Z,18.05
2023-05-13T05:09:09.448Z,12.57
2023-05-13T05:11:35.810Z,11.10
2023-05-13T05:14:02.409Z,12.95
2023-05-13T05:16:28.758Z,11.00
2023-05-13T05:18:55.261Z,12.95
2023-05-13T05:21:21.870Z,9.10
2023-05-13T05:23:48.229Z,11.03
2023-05-13T05:26:14.585Z,12.52
2023-05-13T05:28:43.011Z,10.68
2023-05-13T05:31:09.791Z,12.68
2023-05-13T05:33:36.972Z,12.02
2023-05-13T05:36:03.636Z,10.30
2023-05-13T05:38:30.003Z,13.68
2023-05-13T05:40:56.350Z,11.70
2023-05-13T05:43:22.713Z,14.02
2023-05-13T05:45:49.216Z,11.30
2023-05-13T05:48:15.759Z,10.83
2023-05-13T05:50:42.186Z,13.25
2023-05-13T05:53:08.533Z,13.80
2023-05-13T05:55:35.000Z,13.65
2023-05-13T05:58:05.498Z,10.80
2023-05-13T06:00:33.149Z,12.30
2023-05-13T06:02:59.689Z,13.73
2023-05-13T06:05:26.134Z,11.38
2023-05-13T06:07:52.487Z,12.77
2023-05-13T06:10:19.670Z,12.23
2023-05-13T06:12:46.257Z,10.30
2023-05-13T06:15:12.746Z,10.38
2023-05-13T06:17:39.639Z,12.73
2023-05-13T06:20:06.877Z,11.00
2023-05-13T06:22:33.534Z,13.77
2023-05-13T06:25:00.122Z,12.60
2023-05-13T06:27:26.534Z,12.73
2023-05-13T06:29:53.021Z,11.07
2023-05-13T06:32:19.402Z,10.48
2023-05-13T06:34:46.881Z,11.35
2023-05-13T06:37:16.442Z,12.37
2023-05-13T06:39:42.836Z,11.02
2023-05-13T06:42:09.312Z,10.60
2023-05-13T06:44:35.662Z,10.90
2023-05-13T06:47:03.409Z,11.95
2023-05-13T06:49:29.775Z,13.80
2023-05-13T06:51:56.606Z,10.15
2023-05-13T06:54:23.243Z,14.23
2023-05-13T06:56:49.648Z,12.98
2023-05-13T06:59:16.384Z,10.73
2023-05-13T07:01:42.765Z,11.73
2023-05-13T07:04:09.212Z,12.52
2023-05-13T07:06:35.908Z,10.45
2023-05-13T07:09:08.008Z,12.35
2023-05-13T07:11:35.353Z,12.52
2023-05-13T07:14:01.819Z,15.17
2023-05-13T07:16:28.196Z,10.43
2023-05-13T07:18:54.648Z,11.45
2023-05-13T07:21:21.758Z,11.93
2023-05-13T07:23:48.144Z,12.18
2023-05-13T07:26:14.514Z,11.77
2023-05-13T07:28:40.867Z,12.43
2023-05-13T07:31:07.584Z,9.82
2023-05-13T07:33:34.058Z,10.65
2023-05-13T07:36:00.484Z,11.77
2023-05-13T07:38:27.006Z,12.13
2023-05-13T07:40:53.429Z,13.02
2023-05-13T07:43:23.801Z,11.23
2023-05-13T07:45:53.340Z,12.90
2023-05-13T07:48:19.768Z,11.57
2023-05-13T07:50:46.840Z,9.53
2023-05-13T07:53:13.402Z,10.30
2023-05-13T07:55:39.797Z,13.35
2023-05-13T07:58:06.607Z,11.98
2023-05-13T08:00:33.079Z,10.70
2023-05-13T08:02:59.685Z,12.00
2023-05-13T08:05:26.278Z,10.23
2023-05-13T08:07:52.647Z,11.20
2023-05-13T08:10:19.050Z,9.50
2023-05-13T08:12:50.917Z,9.85
2023-05-13T08:15:17.515Z,11.97
2023-05-13T08:17:43.938Z,8.48
2023-05-13T08:20:11.479Z,9.93
2023-05-13T08:22:38.134Z,8.80
2023-05-13T08:25:05.536Z,11.60
2023-05-13T08:27:31.993Z,10.30
2023-05-13T08:29:58.375Z,11.32
2023-05-13T08:32:24.767Z,12.70
2023-05-13T08:34:51.158Z,8.45
2023-05-13T08:37:17.538Z,8.55
2023-05-13T08:39:43.908Z,8.23
2023-05-13T08:42:11.498Z,8.18
2023-05-13T08:44:41.891Z,10.65
2023-05-13T08:47:39.383Z,9.25
2023-05-13T08:50:07.020Z,9.85
2023-05-13T08:52:33.574Z,12.23
2023-05-13T08:55:01.084Z,10.27
2023-05-13T08:57:27.966Z,7.20
2023-05-13T08:59:54.350Z,9.75
2023-05-13T09:02:20.769Z,7.50
2023-05-13T09:04:52.604Z,10.53
2023-05-13T09:07:19.083Z,10.43
2023-05-13T09:09:45.650Z,8.80
2023-05-13T09:12:12.163Z,8.27
2023-05-13T09:14:38.859Z,17.67
2023-05-13T09:17:05.517Z,8.47
2023-05-13T09:19:31.941Z,10.27
2023-05-13T09:21:58.528Z,9.43
2023-05-13T09:24:24.972Z,9.00
2023-05-13T09:26:51.805Z,11.02
2023-05-13T09:29:23.727Z,10.03
2023-05-13T09:31:55.988Z,9.73
2023-05-13T09:34:34.191Z,11.20
2023-05-13T09:37:05.775Z,10.75
2023-05-13T09:39:37.879Z,9.40
2023-05-13T09:42:05.436Z,10.10
2023-05-13T09:44:32.734Z,7.68
2023-05-13T09:47:02.279Z,10.27
2023-05-13T09:49:28.955Z,9.63
2023-05-13T09:51:55.319Z,8.60
2023-05-13T09:54:21.776Z,8.60
2023-05-13T09:56:48.757Z,7.78
2023-05-13T09:59:16.144Z,13.18
2023-05-13T10:01:43.054Z,10.45
2023-05-13T10:04:09.909Z,10.68
2023-05-13T10:06:37.439Z,8.20
2023-05-13T10:09:06.833Z,9.52
2023-05-13T10:11:35.877Z,9.23
2023-05-13T10:14:05.920Z,7.72
2023-05-13T10:16:32.629Z,8.15
2023-05-13T10:18:59.705Z,12.97
2023-05-13T10:21:29.500Z,9.25
2023-05-13T10:23:56.556Z,7.25
2023-05-13T10:26:24.148Z,9.32
2023-05-13T14:44:21.058Z,3.27
2023-05-13T14:46:47.497Z,3.50
2023-05-13T14:49:13.845Z,5.53
2023-05-13T14:51:40.222Z,4.38
2023-05-13T14:54:06.622Z,6.85
2023-05-13T14:56:32.989Z,3.80
2023-05-13T14:58:59.584Z,5.63
2023-05-13T15:01:26.095Z,6.90
2023-05-13T15:03:52.460Z,6.88
2023-05-13T15:06:19.105Z,5.22
2023-05-13T15:08:45.500Z,5.73
2023-05-13T15:11:11.882Z,5.72
2023-05-13T15:13:39.227Z,4.63
2023-05-13T15:16:06.970Z,3.65
2023-05-13T15:18:33.412Z,8.20
2023-05-13T15:20:59.804Z,3.50
2023-05-13T15:23:26.207Z,3.00
2023-05-13T15:25:52.593Z,7.38
2023-05-13T15:28:18.946Z,6.22
2023-05-13T15:30:45.360Z,6.28
2023-05-13T15:33:11.846Z,6.33
2023-05-13T15:35:38.957Z,6.45
2023-05-13T15:38:05.417Z,3.17
2023-05-13T15:40:31.771Z,3.90
2023-05-13T15:42:58.151Z,4.47
2023-05-13T15:45:24.601Z,3.33
2023-05-13T15:47:51.510Z,4.28
2023-05-13T15:50:18.753Z,8.30
2023-05-13T15:52:45.160Z,4.28
2023-05-13T15:55:11.868Z,4.72
2023-05-13T15:57:39.756Z,3.60
2023-05-13T16:00:07.648Z,4.85
2023-05-13T16:02:39.743Z,3.60
2023-05-13T16:05:07.131Z,5.75
2023-05-13T16:07:33.564Z,5.63
2023-05-13T16:09:59.974Z,5.60
2023-05-13T16:12:26.335Z,6.03
2023-05-13T16:14:52.671Z,4.72
2023-05-13T16:17:19.066Z,4.88
2023-05-13T16:19:45.419Z,4.97
2023-05-13T16:22:25.402Z,8.37
2023-05-13T16:24:51.776Z,6.07
2023-05-13T16:27:18.382Z,6.15
2023-05-13T16:29:44.719Z,6.00
2023-05-13T16:32:12.115Z,5.03
2023-05-13T16:34:38.482Z,5.90
2023-05-13T16:37:05.329Z,8.43
2023-05-13T16:39:31.668Z,6.65
2023-05-13T16:41:58.011Z,5.53
2023-05-13T16:44:24.859Z,5.10
2023-05-13T16:46:54.270Z,7.17
2023-05-13T16:49:21.110Z,6.90
2023-05-13T16:51:47.590Z,5.78
2023-05-13T16:54:14.009Z,5.57
2023-05-13T16:56:40.448Z,6.80
2023-05-13T16:59:08.752Z,5.67
2023-05-13T17:01:36.157Z,5.30
2023-05-13T17:04:02.747Z,8.38
2023-05-13T17:06:29.131Z,4.93
2023-05-13T17:08:55.573Z,9.07
2023-05-13T17:11:21.969Z,7.33
2023-05-13T17:13:48.318Z,5.50
2023-05-13T17:16:14.680Z,6.72
2023-05-13T17:18:41.175Z,6.97
2023-05-13T17:21:07.534Z,5.00
2023-05-13T17:23:33.885Z,5.63
2023-05-13T17:26:00.219Z,5.88
2023-05-13T17:28:26.709Z,8.35
2023-05-13T17:30:53.119Z,7.10
2023-05-13T17:33:19.536Z,7.60
2023-05-13T17:35:45.894Z,4.80
2023-05-13T17:38:12.245Z,6.38
2023-05-13T17:40:38.608Z,10.70
2023-05-13T17:43:04.958Z,7.38
2023-05-13T17:45:31.613Z,6.35
2023-05-13T17:47:58.353Z,8.27
2023-05-13T17:50:24.921Z,6.78
2023-05-13T17:52:51.311Z,7.75
2023-05-13T17:55:17.763Z,7.60
2023-05-13T17:57:44.098Z,6.65
2023-05-13T18:00:11.109Z,6.27
2023-05-13T18:02:37.580Z,6.03
2023-05-13T18:05:04.248Z,6.47
2023-05-13T18:07:30.723Z,7.13
2023-05-13T18:09:57.278Z,4.85
2023-05-13T18:12:23.785Z,8.40
2023-05-13T18:14:50.233Z,6.50
2023-05-13T18:17:16.681Z,7.20
2023-05-13T18:19:43.068Z,8.32
2023-05-13T18:22:09.450Z,5.15
2023-05-13T18:24:37.328Z,9.13
2023-05-13T18:27:04.588Z,9.80
2023-05-13T18:29:31.054Z,7.28
2023-05-13T18:31:57.505Z,5.80
2023-05-13T18:34:24.115Z,6.28
2023-05-13T18:36:52.209Z,6.23
2023-05-13T18:39:18.644Z,8.15
2023-05-13T18:41:45.030Z,7.28
2023-05-13T18:44:11.432Z,4.55
2023-05-13T18:46:38.014Z,6.60
2023-05-13T18:49:04.696Z,5.67
2023-05-13T18:51:33.778Z,5.20
2023-05-13T18:54:00.802Z,6.35
2023-05-13T18:56:27.764Z,7.32
2023-05-13T18:58:54.499Z,7.18
2023-05-13T19:01:20.924Z,6.13
2023-05-13T19:03:47.470Z,6.03
2023-05-13T19:06:15.412Z,9.80
2023-05-13T19:08:42.060Z,10.75
2023-05-13T19:11:08.485Z,6.97
2023-05-13T19:13:46.044Z,6.43
2023-05-13T19:16:13.549Z,5.82
2023-05-13T19:18:39.901Z,7.18
2023-05-13T19:21:06.302Z,8.48
2023-05-13T19:23:32.643Z,8.23
2023-05-13T19:25:59.250Z,6.83
2023-05-13T19:28:27.606Z,6.18
2023-05-13T19:30:54.038Z,6.80
2023-05-13T19:33:20.471Z,7.55
2023-05-13T19:35:46.821Z,8.30
2023-05-13T19:38:13.288Z,6.77
2023-05-13T19:40:39.701Z,7.10
2023-05-13T19:43:06.366Z,6.07
2023-05-13T19:45:32.815Z,8.02
2023-05-13T19:47:59.188Z,10.35
2023-05-13T19:50:25.991Z,5.40
2023-05-13T19:52:52.438Z,6.00
2023-05-13T19:55:18.801Z,9.85
2023-05-13T19:57:45.198Z,10.77
2023-05-13T20:00:12.055Z,7.63
2023-05-13T20:02:38.955Z,7.27
2023-05-13T20:05:06.612Z,8.02
2023-05-13T20:07:32.950Z,6.07
2023-05-13T20:09:59.358Z,8.50
2023-05-13T20:12:26.027Z,8.15
2023-05-13T20:14:55.433Z,7.80
2023-05-13T20:17:22.592Z,8.95
2023-05-13T20:19:50.544Z,7.18
2023-05-13T20:22:18.217Z,8.23
2023-05-13T20:24:46.802Z,11.52
2023-05-13T20:27:13.335Z,7.37
2023-05-13T20:29:43.015Z,9.82
2023-05-13T20:32:10.136Z,7.93
2023-05-13T20:34:37.318Z,9.40
2023-05-13T20:37:04.591Z,9.23
2023-05-13T20:39:31.196Z,9.97
2023-05-13T20:41:57.801Z,9.43
2023-05-13T20:44:24.795Z,8.75
2023-05-13T20:46:51.499Z,8.13
2023-05-13T20:49:18.536Z,8.57
2023-05-13T20:51:47.497Z,9.97
2023-05-13T20:54:14.995Z,12.15
2023-05-13T20:56:41.562Z,8.90
2023-05-13T20:59:08.404Z,9.02
2023-05-13T21:01:35.551Z,8.32
2023-05-13T21:04:04.058Z,9.83
2023-05-13T21:06:30.532Z,8.95
2023-05-13T21:08:56.876Z,9.07
2023-05-13T21:11:23.258Z,11.25
2023-05-13T21:13:49.639Z,10.57
2023-05-13T21:16:16.046Z,12.33
2023-05-13T21:18:42.437Z,11.30
2023-05-13T21:21:12.256Z,9.95
2023-05-13T21:23:40.102Z,12.30
2023-05-13T21:26:07.137Z,10.23
2023-05-13T21:28:33.535Z,9.90
2023-05-13T21:30:59.970Z,10.30
2023-05-13T21:33:26.620Z,14.13
2023-05-13T21:35:54.588Z,11.63
2023-05-13T21:38:20.975Z,11.00
2023-05-13T21:40:47.357Z,17.30
2023-05-13T21:43:16.850Z,14.52
2023-05-13T21:45:43.228Z,13.05
2023-05-13T21:48:09.755Z,11.90
2023-05-13T21:50:36.215Z,13.50
2023-05-13T21:53:02.644Z,11.77
2023-05-13T21:55:29.100Z,12.75
2023-05-13T21:57:55.512Z,12.15
2023-05-13T22:00:22.083Z,11.35
2023-05-13T22:02:50.599Z,12.98
2023-05-13T22:05:17.239Z,11.53
2023-05-13T22:07:43.616Z,12.60
2023-05-13T22:10:10.459Z,11.20
2023-05-13T22:12:36.887Z,11.52
2023-05-13T22:15:03.543Z,11.25
2023-05-13T22:17:30.032Z,14.63
2023-05-13T22:19:56.773Z,11.63
2023-05-13T22:22:23.107Z,14.48
2023-05-13T22:24:49.485Z,10.80
2023-05-13T22:27:16.469Z,10.93
2023-05-13T22:29:42.874Z,11.23
2023-05-13T22:32:09.999Z,13.25
2023-05-13T22:34:36.519Z,11.27
2023-05-13T22:37:02.902Z,14.60
2023-05-13T22:39:29.263Z,12.30
2023-05-13T22:41:55.687Z,11.27
2023-05-13T22:44:25.026Z,12.93
2023-05-13T22:46:54.774Z,14.55
2023-05-13T22:49:21.275Z,13.43
2023-05-13T22:51:47.829Z,10.95
2023-05-13T22:54:14.295Z,11.53
2023-05-13T22:56:40.661Z,13.88
2023-05-13T22:59:07.024Z,13.20
2023-05-13T23:01:33.713Z,11.95
2023-05-13T23:04:00.190Z,13.85
2023-05-13T23:06:26.796Z,12.30
2023-05-13T23:08:53.166Z,11.57
2023-05-13T23:11:19.508Z,13.00
2023-05-13T23:13:45.868Z,12.05
2023-05-13T23:16:12.277Z,13.70
2023-05-13T23:18:38.895Z,14.03
2023-05-13T23:21:05.617Z,12.52
2023-05-13T23:23:31.962Z,12.73
2023-05-13T23:25:58.382Z,12.52
2023-05-13T23:28:24.779Z,15.77
2023-05-13T23:30:54.407Z,17.80
2023-05-13T23:33:20.913Z,13.27
2023-05-13T23:35:54.961Z,15.60
2023-05-13T23:38:21.623Z,14.82
2023-05-13T23:40:48.483Z,15.75
2023-05-13T23:43:14.993Z,14.03
2023-05-13T23:45:41.566Z,13.07
2023-05-13T23:48:08.008Z,13.43
2023-05-13T23:50:34.566Z,15.38
2023-05-13T23:53:01.095Z,17.13
2023-05-13T23:55:27.485Z,15.97
2023-05-13T23:57:55.557Z,13.13
